sensor_id;sensor_type;location;lat;lon;timestamp;temperature;humidity
1405;DHT22;697;51.114;6.542;2023-11-19T00:01:00;13.20;99.90
1405;DHT22;697;51.114;6.542;2023-11-19T00:03:26;13.20;99.90
1405;DHT22;697;51.114;6.542;2023-11-19T00:05:53;13.20;99.90
1405;DHT22;697;51.114;6.542;2023-11-19T00:08:21;13.30;99.90
1405;DHT22;697;51.114;6.542;2023-11-19T00:10:50;13.30;99.90
1405;DHT22;697;51.114;6.542;2023-11-19T00:13:18;13.30;99.90
1405;DHT22;697;51.114;6.542;2023-11-19T00:15:45;13.30;99.90
1405;DHT22;697;51.114;6.542;2023-11-19T00:18:13;13.30;99.90
1405;DHT22;697;51.114;6.542;2023-11-19T00:20:40;13.40;99.90
1405;DHT22;697;51.114;6.542;2023-11-19T00:23:06;13.40;99.90
1405;DHT22;697;51.114;6.542;2023-11-19T00:25:33;13.50;99.90
1405;DHT22;697;51.114;6.542;2023-11-19T00:28:00;13.50;99.90
1405;DHT22;697;51.114;6.542;2023-11-19T00:30:28;13.50;99.90
1405;DHT22;697;51.114;6.542;2023-11-19T00:32:56;13.50;99.90
1405;DHT22;697;51.114;6.542;2023-11-19T00:35:23;13.50;99.90
1405;DHT22;697;51.114;6.542;2023-11-19T00:37:50;13.60;99.90
1405;DHT22;697;51.114;6.542;2023-11-19T00:40:19;13.60;99.90
1405;DHT22;697;51.114;6.542;2023-11-19T00:42:49;13.60;99.90
1405;DHT22;697;51.114;6.542;2023-11-19T00:45:17;13.50;99.90
1405;DHT22;697;51.114;6.542;2023-11-19T00:47:46;13.60;99.90
1405;DHT22;697;51.114;6.542;2023-11-19T00:50:14;13.60;99.90
1405;DHT22;697;51.114;6.542;2023-11-19T00:52:42;13.60;99.90
1405;DHT22;697;51.114;6.542;2023-11-19T00:55:09;13.60;99.90
1405;DHT22;697;51.114;6.542;2023-11-19T00:57:38;13.60;99.90
1405;DHT22;697;51.114;6.542;2023-11-19T01:00:07;13.60;99.90
1405;DHT22;697;51.114;6.542;2023-11-19T01:02:43;13.60;99.90
1405;DHT22;697;51.114;6.542;2023-11-19T01:05:12;13.60;99.90
1405;DHT22;697;51.114;6.542;2023-11-19T01:07:41;13.60;99.90
1405;DHT22;697;51.114;6.542;2023-11-19T01:10:09;13.60;99.90
1405;DHT22;697;51.114;6.542;2023-11-19T01:12:37;13.60;99.90
1405;DHT22;697;51.114;6.542;2023-11-19T01:15:04;13.70;99.90
1405;DHT22;697;51.114;6.542;2023-11-19T01:17:31;13.70;99.90
1405;DHT22;697;51.114;6.542;2023-11-19T01:19:59;13.70;99.90
1405;DHT22;697;51.114;6.542;2023-11-19T01:22:28;13.70;99.90
1405;DHT22;697;51.114;6.542;2023-11-19T01:24:55;13.70;99.90
1405;DHT22;697;51.114;6.542;2023-11-19T01:27:23;13.70;99.90
1405;DHT22;697;51.114;6.542;2023-11-19T01:29:50;13.70;99.90
1405;DHT22;697;51.114;6.542;2023-11-19T01:32:17;13.70;99.90
1405;DHT22;697;51.114;6.542;2023-11-19T01:34:43;13.70;99.90
1405;DHT22;697;51.114;6.542;2023-11-19T01:37:10;13.70;99.90
1405;DHT22;697;51.114;6.542;2023-11-19T01:39:39;13.60;99.90
1405;DHT22;697;51.114;6.542;2023-11-19T01:42:06;13.70;99.90
1405;DHT22;697;51.114;6.542;2023-11-19T01:44:33;13.70;99.90
1405;DHT22;697;51.114;6.542;2023-11-19T01:47:00;13.70;99.90
1405;DHT22;697;51.114;6.542;2023-11-19T01:49:30;13.70;99.90
1405;DHT22;697;51.114;6.542;2023-11-19T01:51:59;13.70;99.90
1405;DHT22;697;51.114;6.542;2023-11-19T01:54:28;13.70;99.90
1405;DHT22;697;51.114;6.542;2023-11-19T01:56:56;13.80;99.90
1405;DHT22;697;51.114;6.542;2023-11-19T01:59:24;13.80;99.90
1405;DHT22;697;51.114;6.542;2023-11-19T02:01:53;13.80;99.90
1405;DHT22;697;51.114;6.542;2023-11-19T02:04:21;13.90;99.90
1405;DHT22;697;51.114;6.542;2023-11-19T02:06:48;13.90;99.90
1405;DHT22;697;51.114;6.542;2023-11-19T02:09:17;13.90;99.90
1405;DHT22;697;51.114;6.542;2023-11-19T02:11:46;13.90;99.90
1405;DHT22;697;51.114;6.542;2023-11-19T02:14:23;14.00;99.90
1405;DHT22;697;51.114;6.542;2023-11-19T02:16:51;14.00;99.90
1405;DHT22;697;51.114;6.542;2023-11-19T02:19:20;14.00;99.90
1405;DHT22;697;51.114;6.542;2023-11-19T02:21:47;14.00;99.90
1405;DHT22;697;51.114;6.542;2023-11-19T02:24:14;14.00;99.90
1405;DHT22;697;51.114;6.542;2023-11-19T02:26:50;14.10;99.90
1405;DHT22;697;51.114;6.542;2023-11-19T02:29:20;14.00;99.90
1405;DHT22;697;51.114;6.542;2023-11-19T02:31:47;14.00;99.90
1405;DHT22;697;51.114;6.542;2023-11-19T02:34:14;14.00;99.90
1405;DHT22;697;51.114;6.542;2023-11-19T02:36:41;14.00;99.90
1405;DHT22;697;51.114;6.542;2023-11-19T02:39:08;14.00;99.90
1405;DHT22;697;51.114;6.542;2023-11-19T02:41:38;14.00;99.90
1405;DHT22;697;51.114;6.542;2023-11-19T02:44:05;14.00;99.90
1405;DHT22;697;51.114;6.542;2023-11-19T02:46:34;14.00;99.90
1405;DHT22;697;51.114;6.542;2023-11-19T02:49:01;14.00;99.90
1405;DHT22;697;51.114;6.542;2023-11-19T02:51:27;14.00;99.90
1405;DHT22;697;51.114;6.542;2023-11-19T02:53:53;14.00;99.90
1405;DHT22;697;51.114;6.542;2023-11-19T02:56:20;14.00;99.90
1405;DHT22;697;51.114;6.542;2023-11-19T02:58:51;14.00;99.90
1405;DHT22;697;51.114;6.542;2023-11-19T03:01:22;14.00;99.90
1405;DHT22;697;51.114;6.542;2023-11-19T03:03:57;14.00;99.90
1405;DHT22;697;51.114;6.542;2023-11-19T03:06:24;14.00;99.90
1405;DHT22;697;51.114;6.542;2023-11-19T03:08:54;14.00;99.90
1405;DHT22;697;51.114;6.542;2023-11-19T03:11:23;14.00;99.90
1405;DHT22;697;51.114;6.542;2023-11-19T03:13:50;14.00;99.90
1405;DHT22;697;51.114;6.542;2023-11-19T03:16:16;14.00;99.90
1405;DHT22;697;51.114;6.542;2023-11-19T03:18:43;14.00;99.90
1405;DHT22;697;51.114;6.542;2023-11-19T03:21:12;14.00;99.90
1405;DHT22;697;51.114;6.542;2023-11-19T03:23:40;14.10;99.90
1405;DHT22;697;51.114;6.542;2023-11-19T03:26:07;14.10;99.90
1405;DHT22;697;51.114;6.542;2023-11-19T03:28:34;14.10;99.90
1405;DHT22;697;51.114;6.542;2023-11-19T03:31:04;14.10;99.90
1405;DHT22;697;51.114;6.542;2023-11-19T03:33:33;14.10;99.90
1405;DHT22;697;51.114;6.542;2023-11-19T03:36:00;14.20;99.90
1405;DHT22;697;51.114;6.542;2023-11-19T03:38:28;14.20;99.90
1405;DHT22;697;51.114;6.542;2023-11-19T03:40:55;14.10;99.90
1405;DHT22;697;51.114;6.542;2023-11-19T03:43:22;14.10;99.90
1405;DHT22;697;51.114;6.542;2023-11-19T03:45:48;14.10;99.90
1405;DHT22;697;51.114;6.542;2023-11-19T03:48:15;14.10;99.90
1405;DHT22;697;51.114;6.542;2023-11-19T03:50:42;14.10;99.90
1405;DHT22;697;51.114;6.542;2023-11-19T03:53:09;14.10;99.90
1405;DHT22;697;51.114;6.542;2023-11-19T03:55:37;14.10;99.90
1405;DHT22;697;51.114;6.542;2023-11-19T03:58:04;14.10;99.90
1405;DHT22;697;51.114;6.542;2023-11-19T04:00:31;14.00;99.90
1405;DHT22;697;51.114;6.542;2023-11-19T04:02:58;14.00;99.90
1405;DHT22;697;51.114;6.542;2023-11-19T04:05:25;14.00;99.90
1405;DHT22;697;51.114;6.542;2023-11-19T04:07:52;13.90;99.90
1405;DHT22;697;51.114;6.542;2023-11-19T04:10:19;13.90;99.90
1405;DHT22;697;51.114;6.542;2023-11-19T04:12:47;13.80;99.90
1405;DHT22;697;51.114;6.542;2023-11-19T04:15:14;13.70;99.90
1405;DHT22;697;51.114;6.542;2023-11-19T04:17:41;13.70;99.90
1405;DHT22;697;51.114;6.542;2023-11-19T04:20:10;13.70;99.90
1405;DHT22;697;51.114;6.542;2023-11-19T04:22:40;13.70;99.90
1405;DHT22;697;51.114;6.542;2023-11-19T04:25:08;13.70;99.90
1405;DHT22;697;51.114;6.542;2023-11-19T04:27:35;13.70;99.90
1405;DHT22;697;51.114;6.542;2023-11-19T04:30:04;13.60;99.90
1405;DHT22;697;51.114;6.542;2023-11-19T04:32:36;13.70;99.90
1405;DHT22;697;51.114;6.542;2023-11-19T04:35:03;13.60;99.90
1405;DHT22;697;51.114;6.542;2023-11-19T04:37:30;13.60;99.90
1405;DHT22;697;51.114;6.542;2023-11-19T04:39:57;13.60;99.90
1405;DHT22;697;51.114;6.542;2023-11-19T04:42:26;13.60;99.90
1405;DHT22;697;51.114;6.542;2023-11-19T04:44:52;13.60;99.90
1405;DHT22;697;51.114;6.542;2023-11-19T04:47:21;13.60;99.90
1405;DHT22;697;51.114;6.542;2023-11-19T04:49:47;13.50;99.90
1405;DHT22;697;51.114;6.542;2023-11-19T04:52:14;13.60;99.90
1405;DHT22;697;51.114;6.542;2023-11-19T04:54:41;13.60;99.90
1405;DHT22;697;51.114;6.542;2023-11-19T04:57:09;13.50;99.90
1405;DHT22;697;51.114;6.542;2023-11-19T04:59:36;13.60;99.90
1405;DHT22;697;51.114;6.542;2023-11-19T05:02:03;13.60;99.90
1405;DHT22;697;51.114;6.542;2023-11-19T05:04:32;13.60;99.90
1405;DHT22;697;51.114;6.542;2023-11-19T05:06:58;13.60;99.90
1405;DHT22;697;51.114;6.542;2023-11-19T05:09:25;13.60;99.90
1405;DHT22;697;51.114;6.542;2023-11-19T05:11:52;13.60;99.90
1405;DHT22;697;51.114;6.542;2023-11-19T05:14:19;13.60;99.90
1405;DHT22;697;51.114;6.542;2023-11-19T05:16:47;13.50;99.90
1405;DHT22;697;51.114;6.542;2023-11-19T05:19:14;13.60;99.90
1405;DHT22;697;51.114;6.542;2023-11-19T05:21:43;13.60;99.90
1405;DHT22;697;51.114;6.542;2023-11-19T05:24:10;13.50;99.90
1405;DHT22;697;51.114;6.542;2023-11-19T05:26:37;13.50;99.90
1405;DHT22;697;51.114;6.542;2023-11-19T05:29:04;13.50;99.90
1405;DHT22;697;51.114;6.542;2023-11-19T05:31:31;13.50;99.90
1405;DHT22;697;51.114;6.542;2023-11-19T05:33:57;13.50;99.90
1405;DHT22;697;51.114;6.542;2023-11-19T05:36:24;13.40;99.90
1405;DHT22;697;51.114;6.542;2023-11-19T05:38:52;13.40;99.90
1405;DHT22;697;51.114;6.542;2023-11-19T05:41:19;13.30;99.90
1405;DHT22;697;51.114;6.542;2023-11-19T05:43:46;13.40;99.90
1405;DHT22;697;51.114;6.542;2023-11-19T05:46:13;13.40;99.90
1405;DHT22;697;51.114;6.542;2023-11-19T05:48:41;13.30;99.90
1405;DHT22;697;51.114;6.542;2023-11-19T05:51:08;13.30;99.90
1405;DHT22;697;51.114;6.542;2023-11-19T05:53:34;13.30;99.90
1405;DHT22;697;51.114;6.542;2023-11-19T05:56:03;13.30;99.90
1405;DHT22;697;51.114;6.542;2023-11-19T05:58:30;13.30;99.90
1405;DHT22;697;51.114;6.542;2023-11-19T06:00:58;13.30;99.90
1405;DHT22;697;51.114;6.542;2023-11-19T06:03:26;13.30;99.90
1405;DHT22;697;51.114;6.542;2023-11-19T06:05:55;13.30;99.90
1405;DHT22;697;51.114;6.542;2023-11-19T06:08:21;13.20;99.90
1405;DHT22;697;51.114;6.542;2023-11-19T06:10:48;13.10;99.90
1405;DHT22;697;51.114;6.542;2023-11-19T06:13:18;13.20;99.90
1405;DHT22;697;51.114;6.542;2023-11-19T06:15:45;13.10;99.90
1405;DHT22;697;51.114;6.542;2023-11-19T06:18:12;13.10;99.90
1405;DHT22;697;51.114;6.542;2023-11-19T06:20:40;13.10;99.90
1405;DHT22;697;51.114;6.542;2023-11-19T06:23:09;13.10;99.90
1405;DHT22;697;51.114;6.542;2023-11-19T06:25:35;13.00;99.90
1405;DHT22;697;51.114;6.542;2023-11-19T06:28:04;13.00;99.90
1405;DHT22;697;51.114;6.542;2023-11-19T06:30:32;13.00;99.90
1405;DHT22;697;51.114;6.542;2023-11-19T06:32:59;13.10;99.90
1405;DHT22;697;51.114;6.542;2023-11-19T06:35:25;13.00;99.90
1405;DHT22;697;51.114;6.542;2023-11-19T06:37:53;13.00;99.90
1405;DHT22;697;51.114;6.542;2023-11-19T06:40:20;12.90;99.90
1405;DHT22;697;51.114;6.542;2023-11-19T06:42:47;13.00;99.90
1405;DHT22;697;51.114;6.542;2023-11-19T06:45:14;12.90;99.90
1405;DHT22;697;51.114;6.542;2023-11-19T06:47:42;12.90;99.90
1405;DHT22;697;51.114;6.542;2023-11-19T06:50:09;12.90;99.90
1405;DHT22;697;51.114;6.542;2023-11-19T06:52:39;12.90;99.90
1405;DHT22;697;51.114;6.542;2023-11-19T06:55:06;12.90;99.90
1405;DHT22;697;51.114;6.542;2023-11-19T06:57:33;12.80;99.90
1405;DHT22;697;51.114;6.542;2023-11-19T07:00:00;12.90;99.90
1405;DHT22;697;51.114;6.542;2023-11-19T07:02:27;12.90;99.90
1405;DHT22;697;51.114;6.542;2023-11-19T07:04:55;12.90;99.90
1405;DHT22;697;51.114;6.542;2023-11-19T07:07:25;12.90;99.90
1405;DHT22;697;51.114;6.542;2023-11-19T07:09:54;12.90;99.90
1405;DHT22;697;51.114;6.542;2023-11-19T07:12:20;12.90;99.90
1405;DHT22;697;51.114;6.542;2023-11-19T07:14:47;12.90;99.90
1405;DHT22;697;51.114;6.542;2023-11-19T07:17:14;12.90;99.90
1405;DHT22;697;51.114;6.542;2023-11-19T07:19:41;12.90;99.90
1405;DHT22;697;51.114;6.542;2023-11-19T07:22:09;12.80;99.90
1405;DHT22;697;51.114;6.542;2023-11-19T07:24:39;12.90;99.90
1405;DHT22;697;51.114;6.542;2023-11-19T07:27:06;12.80;99.90
1405;DHT22;697;51.114;6.542;2023-11-19T07:29:34;12.80;99.90
1405;DHT22;697;51.114;6.542;2023-11-19T07:32:01;12.80;99.90
1405;DHT22;697;51.114;6.542;2023-11-19T07:34:28;12.80;99.90
1405;DHT22;697;51.114;6.542;2023-11-19T07:36:55;12.90;99.90
1405;DHT22;697;51.114;6.542;2023-11-19T07:39:26;12.80;99.90
1405;DHT22;697;51.114;6.542;2023-11-19T07:41:53;12.80;99.90
1405;DHT22;697;51.114;6.542;2023-11-19T07:44:20;12.80;99.90
1405;DHT22;697;51.114;6.542;2023-11-19T07:46:47;12.80;99.90
1405;DHT22;697;51.114;6.542;2023-11-19T07:49:14;12.80;99.90
1405;DHT22;697;51.114;6.542;2023-11-19T07:51:41;12.80;99.90
1405;DHT22;697;51.114;6.542;2023-11-19T07:54:09;12.90;99.90
1405;DHT22;697;51.114;6.542;2023-11-19T07:56:38;12.90;99.90
1405;DHT22;697;51.114;6.542;2023-11-19T07:59:04;12.90;99.90
1405;DHT22;697;51.114;6.542;2023-11-19T08:01:32;12.90;99.90
1405;DHT22;697;51.114;6.542;2023-11-19T08:03:58;13.00;99.90
1405;DHT22;697;51.114;6.542;2023-11-19T08:06:27;13.00;99.90
1405;DHT22;697;51.114;6.542;2023-11-19T08:08:53;13.00;99.90
1405;DHT22;697;51.114;6.542;2023-11-19T08:11:20;13.00;99.90
1405;DHT22;697;51.114;6.542;2023-11-19T08:13:48;13.10;99.90
1405;DHT22;697;51.114;6.542;2023-11-19T08:16:15;13.10;99.90
1405;DHT22;697;51.114;6.542;2023-11-19T08:18:42;13.10;99.90
1405;DHT22;697;51.114;6.542;2023-11-19T08:21:09;13.10;99.90
1405;DHT22;697;51.114;6.542;2023-11-19T08:23:37;13.10;99.90
1405;DHT22;697;51.114;6.542;2023-11-19T08:26:05;13.10;99.90
1405;DHT22;697;51.114;6.542;2023-11-19T08:28:32;13.10;99.90
1405;DHT22;697;51.114;6.542;2023-11-19T08:31:01;13.10;99.90
1405;DHT22;697;51.114;6.542;2023-11-19T08:33:31;13.20;99.90
1405;DHT22;697;51.114;6.542;2023-11-19T08:35:58;13.20;99.90
1405;DHT22;697;51.114;6.542;2023-11-19T08:38:24;13.20;99.90
1405;DHT22;697;51.114;6.542;2023-11-19T08:40:51;13.20;99.90
1405;DHT22;697;51.114;6.542;2023-11-19T08:43:18;13.30;99.90
1405;DHT22;697;51.114;6.542;2023-11-19T08:45:45;13.30;99.90
1405;DHT22;697;51.114;6.542;2023-11-19T08:48:14;13.40;99.90
1405;DHT22;697;51.114;6.542;2023-11-19T08:50:41;13.40;99.90
1405;DHT22;697;51.114;6.542;2023-11-19T08:53:08;13.40;99.90
1405;DHT22;697;51.114;6.542;2023-11-19T08:55:35;13.40;99.90
1405;DHT22;697;51.114;6.542;2023-11-19T08:58:02;13.50;99.90
1405;DHT22;697;51.114;6.542;2023-11-19T09:00:29;13.50;99.90
1405;DHT22;697;51.114;6.542;2023-11-19T09:02:57;13.50;99.90
1405;DHT22;697;51.114;6.542;2023-11-19T09:05:27;13.60;99.90
1405;DHT22;697;51.114;6.542;2023-11-19T09:07:54;13.50;99.90
1405;DHT22;697;51.114;6.542;2023-11-19T09:10:20;13.60;99.90
1405;DHT22;697;51.114;6.542;2023-11-19T09:12:49;13.60;99.90
1405;DHT22;697;51.114;6.542;2023-11-19T09:15:15;13.60;99.90
1405;DHT22;697;51.114;6.542;2023-11-19T09:17:42;13.60;99.90
1405;DHT22;697;51.114;6.542;2023-11-19T09:20:11;13.60;99.90
1405;DHT22;697;51.114;6.542;2023-11-19T09:22:42;13.70;99.90
1405;DHT22;697;51.114;6.542;2023-11-19T09:25:09;13.80;99.90
1405;DHT22;697;51.114;6.542;2023-11-19T09:27:35;13.80;99.90
1405;DHT22;697;51.114;6.542;2023-11-19T09:30:03;13.80;99.90
1405;DHT22;697;51.114;6.542;2023-11-19T09:32:30;13.80;99.90
1405;DHT22;697;51.114;6.542;2023-11-19T09:34:56;13.80;99.90
1405;DHT22;697;51.114;6.542;2023-11-19T09:37:23;13.80;99.90
1405;DHT22;697;51.114;6.542;2023-11-19T09:39:51;13.80;99.90
1405;DHT22;697;51.114;6.542;2023-11-19T09:42:20;13.90;99.90
1405;DHT22;697;51.114;6.542;2023-11-19T09:44:47;13.90;99.90
1405;DHT22;697;51.114;6.542;2023-11-19T09:47:17;14.00;99.90
1405;DHT22;697;51.114;6.542;2023-11-19T09:49:45;14.00;99.80
1405;DHT22;697;51.114;6.542;2023-11-19T09:52:13;14.10;99.90
1405;DHT22;697;51.114;6.542;2023-11-19T09:54:41;14.20;99.90
1405;DHT22;697;51.114;6.542;2023-11-19T09:57:13;14.40;99.90
1405;DHT22;697;51.114;6.542;2023-11-19T09:59:43;14.50;99.70
1405;DHT22;697;51.114;6.542;2023-11-19T10:02:11;14.50;99.40
1405;DHT22;697;51.114;6.542;2023-11-19T10:04:39;14.40;98.90
1405;DHT22;697;51.114;6.542;2023-11-19T10:07:08;14.30;99.10
1405;DHT22;697;51.114;6.542;2023-11-19T10:09:36;14.40;99.30
1405;DHT22;697;51.114;6.542;2023-11-19T10:12:03;14.40;99.40
1405;DHT22;697;51.114;6.542;2023-11-19T10:14:32;14.60;99.50
1405;DHT22;697;51.114;6.542;2023-11-19T10:17:03;14.60;98.40
1405;DHT22;697;51.114;6.542;2023-11-19T10:19:31;14.70;98.70
1405;DHT22;697;51.114;6.542;2023-11-19T10:22:04;14.70;98.10
1405;DHT22;697;51.114;6.542;2023-11-19T10:24:31;14.80;98.30
1405;DHT22;697;51.114;6.542;2023-11-19T10:27:00;14.80;97.80
1405;DHT22;697;51.114;6.542;2023-11-19T10:29:29;15.00;97.80
1405;DHT22;697;51.114;6.542;2023-11-19T10:31:58;15.00;97.60
1405;DHT22;697;51.114;6.542;2023-11-19T10:34:25;15.00;97.00
1405;DHT22;697;51.114;6.542;2023-11-19T10:36:52;15.00;96.90
1405;DHT22;697;51.114;6.542;2023-11-19T10:39:21;15.00;96.50
1405;DHT22;697;51.114;6.542;2023-11-19T10:41:50;15.00;97.00
1405;DHT22;697;51.114;6.542;2023-11-19T10:44:31;15.10;96.70
1405;DHT22;697;51.114;6.542;2023-11-19T10:47:00;15.10;96.70
1405;DHT22;697;51.114;6.542;2023-11-19T10:49:27;15.10;96.30
1405;DHT22;697;51.114;6.542;2023-11-19T10:51:55;15.20;96.10
1405;DHT22;697;51.114;6.542;2023-11-19T10:54:26;15.30;96.00
1405;DHT22;697;51.114;6.542;2023-11-19T10:56:55;15.20;95.20
1405;DHT22;697;51.114;6.542;2023-11-19T10:59:24;15.10;95.90
1405;DHT22;697;51.114;6.542;2023-11-19T11:01:53;15.00;96.10
1405;DHT22;697;51.114;6.542;2023-11-19T11:04:25;15.00;96.60
1405;DHT22;697;51.114;6.542;2023-11-19T11:06:56;14.90;96.80
1405;DHT22;697;51.114;6.542;2023-11-19T11:09:26;14.80;97.20
1405;DHT22;697;51.114;6.542;2023-11-19T11:11:54;14.80;97.40
1405;DHT22;697;51.114;6.542;2023-11-19T11:14:24;15.00;97.50
1405;DHT22;697;51.114;6.542;2023-11-19T11:16:53;15.30;97.00
1405;DHT22;697;51.114;6.542;2023-11-19T11:19:20;15.60;95.90
1405;DHT22;697;51.114;6.542;2023-11-19T11:21:51;15.90;95.60
1405;DHT22;697;51.114;6.542;2023-11-19T11:27:43;16.20;93.90
1405;DHT22;697;51.114;6.542;2023-11-19T11:30:20;16.40;93.50
1405;DHT22;697;51.114;6.542;2023-11-19T11:32:57;16.50;92.90
1405;DHT22;697;51.114;6.542;2023-11-19T11:35:31;16.70;91.70
1405;DHT22;697;51.114;6.542;2023-11-19T11:38:06;16.60;91.10
1405;DHT22;697;51.114;6.542;2023-11-19T11:40:33;16.50;91.20
1405;DHT22;697;51.114;6.542;2023-11-19T11:43:01;16.50;90.90
1405;DHT22;697;51.114;6.542;2023-11-19T11:45:38;16.50;90.50
1405;DHT22;697;51.114;6.542;2023-11-19T11:48:12;16.40;91.20
1405;DHT22;697;51.114;6.542;2023-11-19T11:50:56;16.30;91.40
1405;DHT22;697;51.114;6.542;2023-11-19T11:53:25;16.30;91.60
1405;DHT22;697;51.114;6.542;2023-11-19T11:55:57;16.20;91.40
1405;DHT22;697;51.114;6.542;2023-11-19T11:58:27;16.00;91.70
1405;DHT22;697;51.114;6.542;2023-11-19T12:00:57;16.00;92.50
1405;DHT22;697;51.114;6.542;2023-11-19T12:03:27;16.10;92.50
1405;DHT22;697;51.114;6.542;2023-11-19T12:05:55;16.00;91.90
1405;DHT22;697;51.114;6.542;2023-11-19T12:08:27;15.90;92.70
1405;DHT22;697;51.114;6.542;2023-11-19T12:10:55;15.80;92.80
1405;DHT22;697;51.114;6.542;2023-11-19T12:13:29;15.90;93.50
1405;DHT22;697;51.114;6.542;2023-11-19T12:16:08;16.10;92.80
1405;DHT22;697;51.114;6.542;2023-11-19T12:18:35;16.20;92.50
1405;DHT22;697;51.114;6.542;2023-11-19T12:21:02;16.40;92.20
1405;DHT22;697;51.114;6.542;2023-11-19T12:23:32;16.40;92.20
1405;DHT22;697;51.114;6.542;2023-11-19T12:25:59;16.30;92.60
1405;DHT22;697;51.114;6.542;2023-11-19T12:28:26;16.00;92.50
1405;DHT22;697;51.114;6.542;2023-11-19T12:30:53;15.80;94.30
1405;DHT22;697;51.114;6.542;2023-11-19T12:33:20;15.50;95.50
1405;DHT22;697;51.114;6.542;2023-11-19T12:35:48;15.30;97.40
1405;DHT22;697;51.114;6.542;2023-11-19T12:38:21;15.20;98.40
1405;DHT22;697;51.114;6.542;2023-11-19T12:41:03;15.20;98.60
1405;DHT22;697;51.114;6.542;2023-11-19T12:43:30;15.30;98.00
1405;DHT22;697;51.114;6.542;2023-11-19T12:45:59;15.70;97.20
1405;DHT22;697;51.114;6.542;2023-11-19T12:48:27;16.10;96.30
1405;DHT22;697;51.114;6.542;2023-11-19T12:50:55;16.00;95.00
1405;DHT22;697;51.114;6.542;2023-11-19T12:53:25;15.90;95.50
1405;DHT22;697;51.114;6.542;2023-11-19T12:55:55;15.80;95.70
1405;DHT22;697;51.114;6.542;2023-11-19T12:58:29;15.60;95.60
1405;DHT22;697;51.114;6.542;2023-11-19T13:00:59;15.60;96.60
1405;DHT22;697;51.114;6.542;2023-11-19T13:03:30;15.60;96.50
1405;DHT22;697;51.114;6.542;2023-11-19T13:06:04;15.50;95.90
1405;DHT22;697;51.114;6.542;2023-11-19T13:08:37;15.60;96.40
1405;DHT22;697;51.114;6.542;2023-11-19T13:11:06;15.60;96.40
1405;DHT22;697;51.114;6.542;2023-11-19T13:13:55;15.70;96.00
1405;DHT22;697;51.114;6.542;2023-11-19T13:16:22;15.60;95.70
1405;DHT22;697;51.114;6.542;2023-11-19T13:18:51;15.50;96.20
1405;DHT22;697;51.114;6.542;2023-11-19T13:21:18;15.50;96.30
1405;DHT22;697;51.114;6.542;2023-11-19T13:23:45;15.40;96.50
1405;DHT22;697;51.114;6.542;2023-11-19T13:26:13;15.30;96.80
1405;DHT22;697;51.114;6.542;2023-11-19T13:28:40;15.20;96.80
1405;DHT22;697;51.114;6.542;2023-11-19T13:31:07;15.20;96.90
1405;DHT22;697;51.114;6.542;2023-11-19T13:33:35;15.30;96.70
1405;DHT22;697;51.114;6.542;2023-11-19T13:36:06;15.30;96.80
1405;DHT22;697;51.114;6.542;2023-11-19T13:38:33;15.30;97.10
1405;DHT22;697;51.114;6.542;2023-11-19T13:41:04;15.30;96.70
1405;DHT22;697;51.114;6.542;2023-11-19T13:43:34;15.40;96.50
1405;DHT22;697;51.114;6.542;2023-11-19T13:46:01;15.30;96.30
1405;DHT22;697;51.114;6.542;2023-11-19T13:48:28;15.30;95.90
1405;DHT22;697;51.114;6.542;2023-11-19T13:50:55;15.30;95.40
1405;DHT22;697;51.114;6.542;2023-11-19T13:53:22;15.20;95.60
1405;DHT22;697;51.114;6.542;2023-11-19T13:55:49;15.20;96.10
1405;DHT22;697;51.114;6.542;2023-11-19T13:58:17;15.10;96.10
1405;DHT22;697;51.114;6.542;2023-11-19T14:00:46;15.00;96.30
1405;DHT22;697;51.114;6.542;2023-11-19T14:03:13;14.90;96.40
1405;DHT22;697;51.114;6.542;2023-11-19T14:05:39;14.90;97.00
1405;DHT22;697;51.114;6.542;2023-11-19T14:08:09;14.70;96.90
1405;DHT22;697;51.114;6.542;2023-11-19T14:10:37;14.60;97.90
1405;DHT22;697;51.114;6.542;2023-11-19T14:13:05;14.50;98.50
1405;DHT22;697;51.114;6.542;2023-11-19T14:15:32;14.40;99.10
1405;DHT22;697;51.114;6.542;2023-11-19T14:18:00;14.30;99.90
1405;DHT22;697;51.114;6.542;2023-11-19T14:20:29;14.30;99.90
1405;DHT22;697;51.114;6.542;2023-11-19T14:22:57;14.20;99.90
1405;DHT22;697;51.114;6.542;2023-11-19T14:25:26;14.10;99.90
1405;DHT22;697;51.114;6.542;2023-11-19T14:27:53;14.10;99.90
1405;DHT22;697;51.114;6.542;2023-11-19T14:30:20;14.10;99.90
1405;DHT22;697;51.114;6.542;2023-11-19T14:32:47;14.10;99.90
1405;DHT22;697;51.114;6.542;2023-11-19T14:35:16;14.20;99.90
1405;DHT22;697;51.114;6.542;2023-11-19T14:37:43;14.20;99.90
1405;DHT22;697;51.114;6.542;2023-11-19T14:40:10;14.30;99.40
1405;DHT22;697;51.114;6.542;2023-11-19T14:42:37;14.20;98.60
1405;DHT22;697;51.114;6.542;2023-11-19T14:45:06;14.20;98.60
1405;DHT22;697;51.114;6.542;2023-11-19T14:47:34;14.20;98.90
1405;DHT22;697;51.114;6.542;2023-11-19T14:50:03;14.10;98.80
1405;DHT22;697;51.114;6.542;2023-11-19T14:52:32;14.00;99.10
1405;DHT22;697;51.114;6.542;2023-11-19T14:55:00;14.00;99.40
1405;DHT22;697;51.114;6.542;2023-11-19T14:57:28;13.90;99.90
1405;DHT22;697;51.114;6.542;2023-11-19T14:59:54;13.70;99.90
1405;DHT22;697;51.114;6.542;2023-11-19T15:02:21;13.70;99.90
1405;DHT22;697;51.114;6.542;2023-11-19T15:04:48;13.60;99.90
1405;DHT22;697;51.114;6.542;2023-11-19T15:07:15;13.40;99.90
1405;DHT22;697;51.114;6.542;2023-11-19T15:09:43;13.40;99.90
1405;DHT22;697;51.114;6.542;2023-11-19T15:12:11;13.40;99.90
1405;DHT22;697;51.114;6.542;2023-11-19T15:14:37;13.40;99.90
1405;DHT22;697;51.114;6.542;2023-11-19T15:17:05;13.30;99.90
1405;DHT22;697;51.114;6.542;2023-11-19T15:19:33;13.30;99.90
1405;DHT22;697;51.114;6.542;2023-11-19T15:22:01;13.30;99.90
1405;DHT22;697;51.114;6.542;2023-11-19T15:24:32;13.20;99.90
1405;DHT22;697;51.114;6.542;2023-11-19T15:27:03;13.20;99.90
1405;DHT22;697;51.114;6.542;2023-11-19T15:29:32;13.20;99.90
1405;DHT22;697;51.114;6.542;2023-11-19T15:32:05;13.10;99.90
1405;DHT22;697;51.114;6.542;2023-11-19T15:34:32;13.10;99.90
1405;DHT22;697;51.114;6.542;2023-11-19T15:37:01;13.10;99.90
1405;DHT22;697;51.114;6.542;2023-11-19T15:39:28;13.10;99.90
1405;DHT22;697;51.114;6.542;2023-11-19T15:41:54;13.10;99.90
1405;DHT22;697;51.114;6.542;2023-11-19T15:44:25;13.10;99.90
1405;DHT22;697;51.114;6.542;2023-11-19T15:46:52;13.10;99.90
1405;DHT22;697;51.114;6.542;2023-11-19T15:49:19;13.10;99.90
1405;DHT22;697;51.114;6.542;2023-11-19T15:51:46;13.20;99.90
1405;DHT22;697;51.114;6.542;2023-11-19T15:54:13;13.20;99.90
1405;DHT22;697;51.114;6.542;2023-11-19T15:56:40;13.20;99.90
1405;DHT22;697;51.114;6.542;2023-11-19T15:59:07;13.20;99.90
1405;DHT22;697;51.114;6.542;2023-11-19T16:01:35;13.10;99.90
1405;DHT22;697;51.114;6.542;2023-11-19T16:04:03;13.20;99.90
1405;DHT22;697;51.114;6.542;2023-11-19T16:06:29;13.20;99.90
1405;DHT22;697;51.114;6.542;2023-11-19T16:08:57;13.20;99.90
1405;DHT22;697;51.114;6.542;2023-11-19T16:11:25;13.10;99.90
1405;DHT22;697;51.114;6.542;2023-11-19T16:13:52;13.10;99.90
1405;DHT22;697;51.114;6.542;2023-11-19T16:16:18;13.10;99.90
1405;DHT22;697;51.114;6.542;2023-11-19T16:18:51;13.10;99.90
1405;DHT22;697;51.114;6.542;2023-11-19T16:21:18;13.10;99.90
1405;DHT22;697;51.114;6.542;2023-11-19T16:23:44;13.10;99.90
1405;DHT22;697;51.114;6.542;2023-11-19T16:26:11;13.10;99.90